Time;durP1;ratioP1;P1;durP2;ratioP2;P2;SDS_P1;SDS_P2;PMS_P1;PMS_P2;Temp;Humidity;BMP_temperature;BMP_pressure;BME280_temperature;BME280_humidity;BME280_pressure;Samples;Min_cycle;Max_cycle;Signal;HPM_P1;HPM_P2
2021/12/05 00:23:40;;;;;;;34.08;12.45;;;;;;;-1.14;100.00;97410.00;4402756;32;20423;-70
2021/12/05 00:26:13;;;;;;;30.02;11.43;;;;;;;-0.90;100.00;97444.59;4401031;32;20043;-70
2021/12/05 00:31:47;;;;;;;42.20;15.38;;;;;;;-1.16;100.00;97409.41;4403700;32;20057;-71
2021/12/05 01:03:53;;;;;;;32.90;12.00;;;;;;;-0.79;100.00;97456.31;4416147;32;20046;-71
2021/12/05 01:16:45;;;;;;;46.37;15.88;;;;;;;-0.83;100.00;97450.66;4386340;32;20423;-71
2021/12/05 01:19:16;;;;;;;42.75;14.93;;;;;;;-0.78;100.00;97442.09;4415793;32;20073;-71
2021/12/05 01:21:47;;;;;;;41.47;14.02;;;;;;;-0.83;100.00;97448.00;4418337;32;20499;-71
2021/12/05 01:27:12;;;;;;;46.72;14.68;;;;;;;-1.10;100.00;97419.13;4418110;32;20043;-71
2021/12/05 01:30:07;;;;;;;35.45;13.73;;;;;;;-0.82;100.00;97462.81;4417008;32;20060;-70
2021/12/05 01:35:36;;;;;;;40.53;14.45;;;;;;;-0.79;100.00;97449.19;4418001;32;20056;-70
2021/12/05 01:49:10;;;;;;;42.30;14.77;;;;;;;-0.88;100.00;97445.19;4417435;32;20047;-70
2021/12/05 02:40:25;;;;;;;44.60;16.23;;;;;;;-1.04;100.00;97383.12;4417136;32;20478;-69
2021/12/05 02:43:13;;;;;;;48.70;16.20;;;;;;;-0.77;100.00;97427.81;4416304;32;20054;-70
2021/12/05 02:45:45;;;;;;;43.75;15.98;;;;;;;-0.74;100.00;97427.41;4416617;32;20042;-71
2021/12/05 02:48:13;;;;;;;45.00;14.80;;;;;;;-0.81;100.00;97427.47;4416990;32;21352;-70
2021/12/05 02:50:41;;;;;;;34.50;12.90;;;;;;;-0.83;100.00;97408.38;4416277;32;20041;-70
2021/12/05 02:53:19;;;;;;;47.78;13.80;;;;;;;-0.95;100.00;97386.31;4415102;32;20035;-70
2021/12/05 02:55:50;;;;;;;44.72;13.25;;;;;;;-1.00;100.00;97380.88;4402834;32;21013;-70
2021/12/05 02:58:33;;;;;;;45.17;15.73;;;;;;;-1.03;100.00;97370.72;4415615;32;20038;-70
2021/12/05 03:01:10;;;;;;;40.75;14.55;;;;;;;-1.02;100.00;97385.53;4415915;32;20092;-71
2021/12/05 03:03:38;;;;;;;36.85;11.80;;;;;;;-0.75;100.00;97421.31;4403109;32;20162;-70
2021/12/05 03:06:21;;;;;;;33.92;13.20;;;;;;;-0.71;100.00;97424.31;4416919;32;20062;-70
2021/12/05 03:08:51;;;;;;;40.72;13.85;;;;;;;-0.82;100.00;97412.63;4414899;32;20398;-71
2021/12/05 03:11:20;;;;;;;39.43;13.40;;;;;;;-0.99;100.00;97377.19;4402981;32;20068;-70
2021/12/05 03:13:46;;;;;;;38.45;14.30;;;;;;;-0.74;100.00;97422.09;4417006;32;20072;-70
2021/12/05 03:16:16;;;;;;;37.95;13.45;;;;;;;-0.75;100.00;97410.75;4417427;32;20038;-70
2021/12/05 03:18:43;;;;;;;33.65;14.65;;;;;;;-0.74;100.00;97403.59;4416760;32;20046;-70
2021/12/05 03:21:11;;;;;;;45.30;13.43;;;;;;;-0.81;100.00;97405.50;4416572;32;20164;-70
2021/12/05 03:23:41;;;;;;;34.45;12.30;;;;;;;-0.77;100.00;97402.19;4417418;32;20080;-69
2021/12/05 03:26:11;;;;;;;40.83;13.23;;;;;;;-0.71;100.00;97411.09;4416699;32;20038;-70
2021/12/05 03:28:38;;;;;;;35.72;13.75;;;;;;;-0.77;100.00;97412.78;4415206;32;20034;-70
2021/12/05 03:31:06;;;;;;;31.33;12.32;;;;;;;-0.79;100.00;97414.81;4414570;32;20030;-71
2021/12/05 03:33:35;;;;;;;31.30;11.95;;;;;;;-0.67;100.00;97411.47;4402801;32;20054;-70
2021/12/05 03:36:04;;;;;;;40.33;14.32;;;;;;;-0.73;100.00;97406.03;4416108;32;20046;-70
2021/12/05 03:38:33;;;;;;;38.97;12.82;;;;;;;-0.94;100.00;97385.28;4415271;32;20078;-70
2021/12/05 03:41:00;;;;;;;40.55;13.13;;;;;;;-0.69;100.00;97418.81;4415508;32;20046;-71
2021/12/05 03:43:27;;;;;;;36.83;13.60;;;;;;;-0.96;100.00;97388.16;4415842;32;20057;-70
2021/12/05 03:45:56;;;;;;;37.17;13.13;;;;;;;-0.75;100.00;97428.41;4416221;32;20051;-69
2021/12/05 03:48:27;;;;;;;36.17;14.23;;;;;;;-1.02;100.00;97394.28;4416094;32;20054;-71
2021/12/05 03:50:56;;;;;;;40.03;13.05;;;;;;;-0.77;100.00;97433.91;4414770;32;20065;-70
2021/12/05 03:53:26;;;;;;;35.47;13.15;;;;;;;-0.82;100.00;97425.81;4415111;32;20811;-69
2021/12/05 03:55:55;;;;;;;32.03;12.70;;;;;;;-0.78;100.00;97416.47;4416187;32;20038;-70
2021/12/05 03:58:22;;;;;;;39.92;13.77;;;;;;;-0.67;100.00;97432.63;4416123;32;20106;-69
2021/12/05 04:00:54;;;;;;;37.70;12.02;;;;;;;-0.62;100.00;97435.44;4416217;32;20046;-70
2021/12/05 04:03:22;;;;;;;37.22;11.80;;;;;;;-0.81;100.00;97392.31;4415809;32;20057;-69
2021/12/05 04:05:49;;;;;;;23.45;10.68;;;;;;;-0.60;100.00;97428.09;4416344;32;20041;-70
2021/12/05 04:08:19;;;;;;;41.33;13.93;;;;;;;-0.60;100.00;97422.81;4415922;32;20088;-70
2021/12/05 04:10:51;;;;;;;31.08;11.57;;;;;;;-0.76;100.00;97390.59;4416129;32;20072;-70
2021/12/05 04:13:18;;;;;;;31.60;12.35;;;;;;;-0.58;100.00;97416.25;4400785;32;20422;-70
2021/12/05 04:15:48;;;;;;;35.63;12.70;;;;;;;-0.58;100.00;97415.47;4416197;32;20090;-70
2021/12/05 04:18:15;;;;;;;26.58;12.02;;;;;;;-0.94;100.00;97369.44;4415426;32;20035;-71
2021/12/05 04:20:42;;;;;;;37.95;12.07;;;;;;;-0.77;100.00;97402.19;4416132;32;20107;-70
2021/12/05 04:23:09;;;;;;;34.25;12.27;;;;;;;-0.73;100.00;97403.41;4414889;32;20064;-70
2021/12/05 04:25:41;;;;;;;;;;;;;;;-0.68;100.00;97400.09;4416251;32;20099;-70
2021/12/05 04:28:12;;;;;;;36.50;11.10;;;;;;;-0.60;100.00;97406.94;4415517;32;19954;-71
2021/12/05 04:30:39;;;;;;;33.13;11.25;;;;;;;-0.64;100.00;97406.59;4416077;32;20034;-70
2021/12/05 04:33:06;;;;;;;33.67;12.15;;;;;;;-0.87;100.00;97356.97;4413399;32;20060;-70
2021/12/05 04:35:33;;;;;;;25.17;10.90;;;;;;;-0.95;100.00;97362.53;4415137;32;20046;-71
2021/12/05 04:38:01;;;;;;;28.83;11.98;;;;;;;-0.69;100.00;97411.69;4415224;32;20061;-71
2021/12/05 04:40:28;;;;;;;29.80;11.07;;;;;;;-0.71;100.00;97415.59;4400617;32;20046;-70
2021/12/05 04:42:55;;;;;;;34.38;11.68;;;;;;;-0.93;100.00;97376.31;4416199;32;20050;-70
2021/12/05 04:45:26;;;;;;;20.23;9.57;;;;;;;-0.69;100.00;97402.97;4400041;32;20078;-71
2021/12/05 04:47:53;;;;;;;38.45;10.80;;;;;;;-0.84;100.00;97364.47;4417136;32;20039;-70
2021/12/05 04:50:22;;;;;;;29.37;11.40;;;;;;;-0.86;100.00;97377.09;4418599;32;20037;-71
2021/12/05 04:52:51;;;;;;;33.53;11.65;;;;;;;-0.82;100.00;97375.62;4417949;32;20046;-70
2021/12/05 04:55:19;;;;;;;31.50;11.95;;;;;;;-0.58;100.00;97418.09;4417239;32;20064;-71
2021/12/05 04:57:46;;;;;;;36.33;12.88;;;;;;;-1.02;100.00;97390.81;4418458;32;20054;-70
2021/12/05 05:00:19;;;;;;;36.95;12.73;;;;;;;-1.04;100.00;97384.94;4418735;32;20427;-70
2021/12/05 05:02:46;;;;;;;32.20;11.77;;;;;;;-0.83;100.00;97429.50;4418431;32;20384;-70
2021/12/05 05:05:14;;;;;;;25.33;10.38;;;;;;;-0.92;100.00;97388.53;4414442;32;20034;-70
2021/12/05 05:07:42;;;;;;;34.85;12.10;;;;;;;-0.62;100.00;97430.16;4417891;32;20082;-70
2021/12/05 05:10:26;;;;;;;31.48;10.75;;;;;;;-1.04;100.00;97400.81;4418365;32;20042;-70
2021/12/05 05:12:53;;;;;;;42.00;12.37;;;;;;;-0.78;100.00;97434.97;4416038;32;20068;-71
2021/12/05 05:15:25;;;;;;;31.37;12.02;;;;;;;-0.73;100.00;97440.41;4417396;32;20038;-70
2021/12/05 05:17:55;;;;;;;34.58;12.25;;;;;;;-0.67;100.00;97444.03;4404795;32;20391;-70
2021/12/05 05:40:14;;;;;;;30.80;11.43;;;;;;;-0.69;100.00;97448.69;4417156;32;20396;-74
2021/12/05 05:44:37;;;;;;;;;;;;;;;-0.68;100.00;97447.69;4402804;32;20072;-70
2021/12/05 05:52:18;;;;;;;25.23;11.27;;;;;;;-0.75;100.00;97455.66;4401995;32;20395;-72
2021/12/05 05:54:47;;;;;;;27.87;11.65;;;;;;;-0.71;100.00;97460.53;4388577;32;20068;-71
2021/12/05 05:57:24;;;;;;;27.65;11.80;;;;;;;-0.75;100.00;97458.31;4402402;32;20428;-71
2021/12/05 06:00:13;;;;;;;41.10;12.25;;;;;;;-0.72;100.00;97454.41;4402154;32;20063;-70
2021/12/05 06:05:28;;;;;;;32.00;11.93;;;;;;;-0.73;100.00;97466.81;4402352;32;20405;-69
2021/12/05 06:07:54;;;;;;;32.00;12.07;;;;;;;-0.77;100.00;97464.81;4402158;32;20035;-69
2021/12/05 06:10:25;;;;;;;37.88;11.12;;;;;;;-0.71;100.00;97476.38;4402350;32;20035;-69
2021/12/05 06:12:52;;;;;;;34.75;12.13;;;;;;;-0.74;100.00;97470.47;4401120;32;20133;-70
2021/12/05 06:15:21;;;;;;;35.63;14.45;;;;;;;-0.68;100.00;97475.97;4387952;32;20068;-69
2021/12/05 06:17:47;;;;;;;35.05;15.10;;;;;;;-0.78;100.00;97485.16;4402117;32;20076;-69
2021/12/05 06:20:17;;;;;;;35.78;12.85;;;;;;;-0.95;100.00;97474.31;4402036;32;20035;-70
2021/12/05 06:22:45;;;;;;;29.75;10.82;;;;;;;-0.74;100.00;97496.91;4401913;32;20051;-70
2021/12/05 06:25:19;;;;;;;35.63;14.68;;;;;;;-0.69;100.00;97498.12;4400289;32;20074;-70
2021/12/05 06:28:00;;;;;;;39.70;13.98;;;;;;;-1.02;100.00;97455.06;4400362;32;20406;-69
2021/12/05 06:30:47;;;;;;;32.95;11.82;;;;;;;-0.69;100.00;97495.47;4405345;32;20060;-70
2021/12/05 06:41:49;;;;;;;29.37;10.93;;;;;;;-0.59;100.00;97520.41;4408935;32;20039;-69
2021/12/05 06:47:03;;;;;;;29.48;10.82;;;;;;;-0.64;100.00;97527.34;4401376;32;20409;-69
2021/12/05 06:49:30;;;;;;;29.63;11.32;;;;;;;-0.92;100.00;97488.94;4400709;32;20069;-71
2021/12/05 06:51:56;;;;;;;36.92;12.48;;;;;;;-0.64;100.00;97528.19;4400941;32;20042;-69
2021/12/05 06:54:24;;;;;;;39.25;11.70;;;;;;;-0.63;100.00;97539.56;4400279;32;20106;-69
2021/12/05 06:56:51;;;;;;;34.28;11.95;;;;;;;-0.67;100.00;97527.78;4395881;32;20076;-69
2021/12/05 06:59:18;;;;;;;31.02;13.13;;;;;;;-0.59;100.00;97538.94;4405304;32;20358;-69
2021/12/05 07:01:45;;;;;;;40.78;13.80;;;;;;;-0.91;100.00;97506.38;4393283;32;20427;-71
2021/12/05 07:04:44;;;;;;;41.45;13.30;;;;;;;-0.70;100.00;97544.06;4403405;32;20083;-69
2021/12/05 07:07:08;;;;;;;32.85;13.07;;;;;;;-0.73;100.00;97546.13;4400135;32;20203;-70
2021/12/05 07:09:35;;;;;;;33.67;12.15;;;;;;;-0.73;100.00;97556.69;4399611;32;20053;-71
2021/12/05 07:20:52;;;;;;;36.20;13.27;;;;;;;-0.74;100.00;97565.62;4401462;32;20068;-70
2021/12/05 07:23:18;;;;;;;28.02;10.57;;;;;;;-0.82;100.00;97546.59;4391203;32;20395;-72
2021/12/05 07:25:53;;;;;;;35.78;11.45;;;;;;;-0.73;100.00;97566.47;4401057;32;20051;-71
2021/12/05 07:42:23;;;;;;;32.72;13.77;;;;;;;-1.11;100.00;97586.56;4401367;32;20055;-69
2021/12/05 07:44:56;;;;;;;34.03;13.82;;;;;;;-1.24;100.00;97581.34;4400163;32;20074;-70
2021/12/05 07:47:27;;;;;;;;;;;;;;;-1.66;100.00;97551.81;4403019;32;20068;-72
2021/12/05 07:49:56;;;;;;;32.70;14.98;;;;;;;-1.49;100.00;97600.50;4401188;32;19976;-71
2021/12/05 07:52:26;;;;;;;34.78;15.50;;;;;;;-1.50;100.00;97606.00;4398164;32;20074;-73
2021/12/05 07:55:12;;;;;;;46.05;16.23;;;;;;;-1.60;100.00;97598.50;4399774;32;20066;-71
2021/12/05 08:00:24;;;;;;;33.42;14.18;;;;;;;-1.62;100.00;97570.72;4397367;32;20343;-70
2021/12/05 08:16:48;;;;;;;42.25;14.50;;;;;;;-1.31;100.00;97609.59;4410187;32;20076;-72
2021/12/05 08:19:15;;;;;;;42.95;15.18;;;;;;;-1.25;100.00;97603.50;4401736;32;20057;-71
2021/12/05 08:21:42;;;;;;;40.85;16.23;;;;;;;-1.21;100.00;97606.53;4405923;32;20050;-71
2021/12/05 08:24:09;;;;;;;30.55;14.87;;;;;;;-1.48;100.00;97575.75;4397436;32;20050;-71
2021/12/05 08:29:13;;;;;;;37.45;14.95;;;;;;;-1.33;100.00;97615.09;4401939;32;20078;-71
2021/12/05 08:36:54;;;;;;;36.50;16.02;;;;;;;-1.25;100.00;97616.69;4402939;32;20054;-71
2021/12/05 09:39:42;;;;;;;36.40;16.60;;;;;;;-0.61;100.00;97608.88;4399384;32;20174;-72
2021/12/05 10:06:48;;;;;;;40.10;18.80;;;;;;;-0.45;100.00;97632.16;4414604;32;20046;-72
2021/12/05 10:14:27;;;;;;;48.25;18.30;;;;;;;-0.46;100.00;97619.16;4404707;32;20050;-75
2021/12/05 10:34:33;;;;;;;68.95;26.77;;;;;;;-0.39;100.00;97620.75;4414350;32;20064;-73
2021/12/05 10:37:22;;;;;;;64.82;25.00;;;;;;;-0.38;100.00;97627.66;4413844;32;20450;-77
2021/12/05 10:40:09;;;;;;;57.45;24.80;;;;;;;-0.35;100.00;97625.59;4414439;32;20058;-74
2021/12/05 10:42:55;;;;;;;58.95;23.80;;;;;;;-0.45;100.00;97616.31;4412841;32;20072;-72
2021/12/05 10:45:21;;;;;;;59.80;24.17;;;;;;;-0.52;100.00;97615.56;4414190;32;20474;-73
2021/12/05 10:47:53;;;;;;;59.90;25.02;;;;;;;-0.76;100.00;97572.97;4414464;32;20058;-71
2021/12/05 10:50:47;;;;;;;61.85;23.25;;;;;;;-0.56;100.00;97603.75;4412704;32;20064;-73
2021/12/05 10:53:38;;;;;;;48.45;21.95;;;;;;;-0.52;100.00;97604.97;4397382;32;20056;-73
2021/12/05 10:56:14;;;;;;;59.92;21.17;;;;;;;-0.74;100.00;97597.34;4405411;32;20046;-73
2021/12/05 10:59:12;;;;;;;49.80;21.42;;;;;;;-1.18;100.00;97525.06;4416099;32;20064;-73
2021/12/05 11:01:42;;;;;;;56.72;22.87;;;;;;;-0.61;100.00;97607.03;4412247;32;20046;-73
2021/12/05 11:04:24;;;;;;;42.08;20.75;;;;;;;-0.64;100.00;97606.66;4415798;32;20462;-73
2021/12/05 11:06:56;;;;;;;46.15;19.98;;;;;;;-0.61;100.00;97606.25;4398850;32;20432;-73
2021/12/05 11:09:23;;;;;;;52.72;20.25;;;;;;;-0.62;100.00;97604.66;4414432;32;20216;-73
2021/12/05 11:11:58;;;;;;;42.95;19.17;;;;;;;-0.63;100.00;97613.59;4413211;32;20403;-74
2021/12/05 11:14:28;;;;;;;45.33;18.50;;;;;;;-0.56;100.00;97603.75;4408283;32;20047;-73
2021/12/05 11:17:02;;;;;;;49.20;17.98;;;;;;;-0.84;100.00;97562.66;4407960;32;20493;-73
2021/12/05 11:19:43;;;;;;;47.70;21.17;;;;;;;-0.56;100.00;97599.31;4407347;32;20034;-73
2021/12/05 11:22:21;;;;;;;46.33;19.75;;;;;;;-0.69;100.00;97572.13;4410745;32;20056;-72
2021/12/05 11:24:55;;;;;;;46.10;18.48;;;;;;;-0.51;100.00;97585.44;4401499;32;20060;-73
2021/12/05 11:27:56;;;;;;;44.40;19.35;;;;;;;-0.44;100.00;97586.19;4410265;32;20060;-73
2021/12/05 11:30:31;;;;;;;38.28;16.50;;;;;;;-0.54;100.00;97543.56;4350586;32;20162;-73
2021/12/05 11:33:18;;;;;;;52.80;18.92;;;;;;;-0.52;100.00;97541.50;4348835;32;20028;-73
2021/12/05 11:35:58;;;;;;;56.35;22.00;;;;;;;-0.18;100.00;97589.66;4349205;32;20058;-73
2021/12/05 11:38:33;;;;;;;56.42;22.83;;;;;;;-0.36;100.00;97553.41;4348243;32;20448;-72
2021/12/05 11:41:03;;;;;;;53.33;20.83;;;;;;;-0.15;100.00;97599.81;4348513;33;20396;-73
2021/12/05 11:43:40;;;;;;;49.85;21.55;;;;;;;-0.20;100.00;97603.13;4317838;33;20081;-73
2021/12/05 11:46:32;;;;;;;48.95;20.92;;;;;;;-0.27;100.00;97596.25;4347911;33;20036;-71
2021/12/05 11:49:08;;;;;;;50.92;21.60;;;;;;;-0.59;100.00;97557.44;4345881;33;20117;-72
2021/12/05 11:51:46;;;;;;;39.40;17.73;;;;;;;-0.42;100.00;97589.44;4336802;33;20037;-72
2021/12/05 11:54:20;;;;;;;40.50;19.02;;;;;;;-0.32;100.00;97609.31;4325647;33;20016;-75
2021/12/05 11:56:58;;;;;;;45.67;18.77;;;;;;;-0.58;100.00;97574.09;4350141;32;20074;-74
2021/12/05 11:59:27;;;;;;;45.40;19.35;;;;;;;-0.42;100.00;97605.31;4350473;32;20058;-72
2021/12/05 12:02:04;;;;;;;48.38;20.83;;;;;;;-0.66;100.00;97574.34;4354477;32;20035;-72
2021/12/05 12:04:55;;;;;;;42.75;19.17;;;;;;;-0.76;100.00;97572.97;4383126;32;21358;-73
2021/12/05 12:07:41;;;;;;;48.85;20.73;;;;;;;-0.48;100.00;97626.50;4408663;32;20388;-71
2021/12/05 12:10:08;;;;;;;39.85;19.25;;;;;;;-0.50;100.00;97624.06;4392062;32;20451;-73
2021/12/05 12:12:36;;;;;;;48.83;21.83;;;;;;;-0.60;100.00;97629.81;4389045;32;20035;-73
2021/12/05 12:15:04;;;;;;;49.47;22.40;;;;;;;-0.57;100.00;97632.03;4391458;32;20084;-72
2021/12/05 12:17:31;;;;;;;57.70;24.02;;;;;;;-0.65;100.00;97642.06;4408657;32;20034;-72
2021/12/05 12:19:58;;;;;;;55.65;24.98;;;;;;;-0.81;100.00;97630.16;4393101;32;20450;-72
2021/12/05 12:22:26;;;;;;;49.72;21.58;;;;;;;-1.00;100.00;97608.09;4414628;32;20034;-74
2021/12/05 12:24:57;;;;;;;62.35;23.20;;;;;;;-0.75;100.00;97653.91;4405304;32;20081;-74
2021/12/05 12:27:24;;;;;;;46.90;21.37;;;;;;;-0.73;100.00;97672.19;4409256;32;20056;-74
2021/12/05 12:29:55;;;;;;;50.15;21.02;;;;;;;-1.12;100.00;97621.13;4392977;32;20057;-73
2021/12/05 12:32:33;;;;;;;47.42;22.45;;;;;;;-0.81;100.00;97659.22;4396859;32;20069;-72
2021/12/05 12:35:18;;;;;;;48.80;19.73;;;;;;;-0.89;100.00;97631.22;4395509;32;20056;-72
2021/12/05 12:37:53;;;;;;;58.67;22.70;;;;;;;-1.07;100.00;97605.44;4397715;32;20043;-73
2021/12/05 12:40:56;;;;;;;55.08;21.85;;;;;;;-1.08;100.00;97621.53;4413838;32;21476;-72
2021/12/05 12:43:41;;;;;;;;;;;;;;;-0.86;100.00;97673.06;4405485;32;20067;-72
2021/12/05 12:46:14;;;;;;;45.20;19.35;;;;;;;-0.87;100.00;97670.63;4396786;32;19952;-72
2021/12/05 12:48:41;;;;;;;46.70;18.65;;;;;;;-1.22;100.00;97631.34;4408672;32;20043;-72
2021/12/05 12:51:08;;;;;;;42.25;19.17;;;;;;;-1.03;100.00;97659.50;4403994;32;20080;-72
2021/12/05 12:53:38;;;;;;;45.65;19.05;;;;;;;-1.03;100.00;97674.56;4406945;32;20068;-72
2021/12/05 12:56:10;;;;;;;45.90;20.60;;;;;;;-1.14;100.00;97671.53;4415139;32;20046;-72
2021/12/05 12:58:50;;;;;;;45.55;20.08;;;;;;;-1.28;100.00;97680.50;4396455;32;20087;-72
2021/12/05 13:10:06;;;;;;;45.78;19.90;;;;;;;-1.18;100.00;97686.19;4411456;32;20031;-73
2021/12/05 13:12:44;;;;;;;45.38;21.02;;;;;;;-1.17;100.00;97677.22;4405284;32;20490;-74
2021/12/05 13:15:16;;;;;;;51.03;20.35;;;;;;;-1.20;100.00;97677.63;4408627;32;20047;-74
2021/12/05 13:17:49;;;;;;;49.50;20.00;;;;;;;-1.28;100.00;97675.22;4406822;32;20111;-74
2021/12/05 13:20:20;;;;;;;58.15;22.65;;;;;;;-1.22;100.00;97690.25;4403123;32;20084;-74
2021/12/05 13:23:07;;;;;;;43.87;19.35;;;;;;;-1.21;100.00;97686.59;4401791;32;20441;-74
2021/12/05 13:26:02;;;;;;;55.17;22.10;;;;;;;-1.23;100.00;97682.53;4385624;32;20474;-74
2021/12/05 13:28:36;;;;;;;48.30;18.92;;;;;;;-1.24;100.00;97689.63;4411269;32;20057;-74
2021/12/05 13:31:28;;;;;;;49.97;18.55;;;;;;;-1.26;100.00;97689.03;4393842;32;20231;-74
2021/12/05 13:34:26;;;;;;;54.22;22.08;;;;;;;-1.19;100.00;97695.09;4406728;32;20088;-73
2021/12/05 13:37:00;;;;;;;58.50;21.52;;;;;;;-1.20;100.00;97684.75;4407068;32;20094;-72
2021/12/05 13:39:35;;;;;;;58.60;21.23;;;;;;;-1.19;100.00;97697.75;4404892;32;20080;-72
2021/12/05 13:42:08;;;;;;;60.58;21.95;;;;;;;-1.27;100.00;97682.13;4402476;32;20039;-72
2021/12/05 13:44:56;;;;;;;53.67;20.98;;;;;;;-1.15;100.00;97695.50;4414215;32;20046;-72
2021/12/05 13:47:29;;;;;;;56.42;20.65;;;;;;;-1.15;100.00;97687.56;4417378;32;20082;-73
2021/12/05 13:49:56;;;;;;;;;;;;;;;-1.15;100.00;97691.03;4402351;32;20041;-72
2021/12/05 13:52:37;;;;;;;58.63;20.40;;;;;;;-1.16;100.00;97684.13;4398382;32;19977;-71
2021/12/05 13:55:36;;;;;;;52.40;21.23;;;;;;;-1.38;100.00;97646.59;4405771;32;20046;-71
2021/12/05 13:58:21;;;;;;;53.72;21.65;;;;;;;-1.14;100.00;97687.38;4402474;32;20421;-71
2021/12/05 14:01:11;;;;;;;49.22;20.67;;;;;;;-1.13;100.00;97689.00;4406425;32;20463;-70
2021/12/05 14:03:55;;;;;;;67.12;22.15;;;;;;;-1.40;100.00;97650.47;4398820;32;20030;-71
2021/12/05 14:06:28;;;;;;;61.22;23.83;;;;;;;-1.18;100.00;97690.63;4408542;32;20051;-70
2021/12/05 14:09:00;;;;;;;65.20;21.60;;;;;;;-1.22;100.00;97695.53;4406225;32;20059;-71
2021/12/05 14:11:27;;;;;;;63.60;24.35;;;;;;;-1.18;100.00;97694.09;4406640;32;20055;-71
2021/12/05 14:13:54;;;;;;;57.20;23.17;;;;;;;-1.20;100.00;97703.25;4409773;32;20042;-71
2021/12/05 14:16:33;;;;;;;64.00;24.67;;;;;;;-2.14;100.00;97554.75;4392674;32;20038;-70
2021/12/05 14:19:01;;;;;;;52.83;21.23;;;;;;;-1.26;100.00;97704.06;4409088;32;20453;-71
2021/12/05 14:21:28;;;;;;;62.58;22.87;;;;;;;-1.25;100.00;97701.22;4400323;32;20166;-70
2021/12/05 14:23:58;;;;;;;57.30;23.60;;;;;;;-1.45;100.00;97688.06;4387951;32;20069;-70
2021/12/05 14:26:29;;;;;;;56.30;23.80;;;;;;;-1.26;100.00;97704.88;4402415;32;20047;-70
2021/12/05 14:29:01;;;;;;;61.83;22.33;;;;;;;-1.25;100.00;97709.13;4415057;32;20072;-70
2021/12/05 14:31:31;;;;;;;70.85;24.00;;;;;;;-1.39;100.00;97683.78;4402868;32;20043;-71
2021/12/05 14:33:58;;;;;;;56.78;21.60;;;;;;;-1.22;100.00;97714.00;4400890;32;20425;-71
2021/12/05 14:36:34;;;;;;;56.13;21.70;;;;;;;-1.21;100.00;97714.81;4403123;32;20387;-70
2021/12/05 14:39:17;;;;;;;61.70;21.40;;;;;;;-1.25;100.00;97714.41;4387920;32;20044;-70
2021/12/05 14:41:47;;;;;;;63.35;23.40;;;;;;;-1.55;100.00;97677.88;4404375;32;20071;-71
2021/12/05 14:44:16;;;;;;;63.55;23.08;;;;;;;-1.30;100.00;97714.22;4401235;32;20047;-70
2021/12/05 14:46:50;;;;;;;60.53;22.92;;;;;;;-1.29;100.00;97726.44;4389217;32;20056;-70
2021/12/05 14:49:19;;;;;;;58.20;23.55;;;;;;;-1.50;100.00;97688.66;4404415;32;20080;-69
2021/12/05 14:51:45;;;;;;;60.70;24.92;;;;;;;-1.57;100.00;97687.84;4408072;32;20454;-70
2021/12/05 14:54:18;;;;;;;65.57;24.33;;;;;;;-1.56;100.00;97691.31;4411244;32;20060;-69
2021/12/05 14:56:46;;;;;;;57.55;22.73;;;;;;;-1.34;100.00;97728.84;4396844;32;20417;-70
2021/12/05 14:59:14;;;;;;;58.78;22.52;;;;;;;-1.33;100.00;97731.28;4410824;32;20081;-70
2021/12/05 15:01:44;;;;;;;63.53;23.80;;;;;;;-1.26;100.00;97739.22;4400414;32;20060;-70
2021/12/05 15:04:11;;;;;;;53.05;22.25;;;;;;;-1.49;100.00;97708.75;4411061;32;20038;-69
2021/12/05 15:06:42;;;;;;;54.53;20.67;;;;;;;-1.29;100.00;97742.28;4412973;32;20038;-70
2021/12/05 15:09:32;;;;;;;49.97;20.77;;;;;;;-1.24;100.00;97750.38;4413107;32;20058;-70
2021/12/05 15:12:02;;;;;;;53.30;20.98;;;;;;;-1.57;100.00;97702.88;4412890;32;20467;-69
2021/12/05 15:14:29;;;;;;;50.28;22.13;;;;;;;-1.34;100.00;97749.97;4406186;32;20072;-70
2021/12/05 15:17:03;;;;;;;54.38;22.13;;;;;;;-1.33;100.00;97738.41;4390296;32;20085;-70
2021/12/05 15:19:31;;;;;;;51.30;22.85;;;;;;;-1.37;100.00;97718.69;4403425;32;20060;-70
2021/12/05 15:22:01;;;;;;;59.42;23.45;;;;;;;-1.28;100.00;97743.88;4409362;32;20079;-69
2021/12/05 15:24:28;;;;;;;56.88;22.85;;;;;;;-1.53;100.00;97704.91;4401229;32;20080;-70
2021/12/05 15:26:57;;;;;;;58.45;23.65;;;;;;;-1.25;100.00;97743.47;4391222;32;20050;-69
2021/12/05 15:29:25;;;;;;;50.83;21.50;;;;;;;-1.51;100.00;97702.88;4395969;32;20082;-69
2021/12/05 15:31:51;;;;;;;59.13;23.17;;;;;;;-1.31;100.00;97749.56;4413166;32;20042;-69
2021/12/05 15:34:21;;;;;;;62.13;22.83;;;;;;;-1.30;100.00;97761.75;4410813;32;20068;-69
2021/12/05 15:36:48;;;;;;;60.00;22.08;;;;;;;-1.52;100.00;97727.66;4399780;32;20050;-69
2021/12/05 15:39:22;;;;;;;54.47;20.98;;;;;;;-1.33;100.00;97767.44;4410707;32;20056;-71
2021/12/05 15:41:52;;;;;;;51.47;21.37;;;;;;;-1.36;100.00;97762.59;4409076;32;20042;-69
2021/12/05 15:44:28;;;;;;;54.13;21.50;;;;;;;-1.32;100.00;97769.09;4404290;32;20388;-69
2021/12/05 15:47:01;;;;;;;52.33;21.48;;;;;;;-1.32;100.00;97763.81;4409170;32;20050;-68
2021/12/05 15:49:40;;;;;;;60.38;22.35;;;;;;;-1.32;100.00;97769.91;4407122;32;20379;-70
2021/12/05 15:52:08;;;;;;;54.30;19.62;;;;;;;-1.33;100.00;97770.09;4405667;32;20050;-68
2021/12/05 15:54:37;;;;;;;62.70;21.52;;;;;;;-1.74;100.00;97707.75;4403541;32;20527;-68
2021/12/05 15:57:13;;;;;;;49.33;20.77;;;;;;;-1.62;100.00;97727.25;4400510;32;20055;-68
2021/12/05 15:59:43;;;;;;;48.83;19.77;;;;;;;-1.34;100.00;97776.37;4389133;32;20124;-68
2021/12/05 16:02:11;;;;;;;57.70;20.80;;;;;;;-1.34;100.00;97776.37;4401975;32;20068;-68
2021/12/05 16:04:39;;;;;;;54.45;23.00;;;;;;;-1.37;100.00;97771.50;4391222;32;20825;-68
2021/12/05 16:07:10;;;;;;;56.55;21.73;;;;;;;-1.36;100.00;97773.16;4398601;32;20042;-68
2021/12/05 16:09:39;;;;;;;59.20;22.98;;;;;;;-1.37;100.00;97776.78;4414500;32;20038;-68
2021/12/05 16:12:09;;;;;;;51.17;21.87;;;;;;;-1.33;100.00;97780.66;4411268;32;20046;-68
2021/12/05 16:14:38;;;;;;;53.13;20.45;;;;;;;-1.36;100.00;97776.59;4408101;32;20047;-70
2021/12/05 16:17:17;;;;;;;53.10;20.33;;;;;;;-1.57;100.00;97743.28;4410503;32;20042;-70
2021/12/05 16:20:09;;;;;;;66.53;21.95;;;;;;;-1.36;100.00;97781.06;4409919;32;20086;-69
2021/12/05 16:22:59;;;;;;;46.42;16.58;;;;;;;-1.36;100.00;97779.22;4407965;32;20382;-70
2021/12/05 16:25:28;;;;;;;58.78;20.90;;;;;;;-1.34;100.00;97776.37;4400792;32;20052;-70
2021/12/05 16:28:01;;;;;;;56.10;22.90;;;;;;;-1.44;100.00;97757.50;4394373;32;20023;-70
2021/12/05 16:30:39;;;;;;;49.85;20.12;;;;;;;-1.45;100.00;97759.34;4398147;32;20034;-68
2021/12/05 16:33:07;;;;;;;55.63;19.65;;;;;;;-1.38;100.00;97775.19;4405612;32;20391;-68
2021/12/05 16:35:38;;;;;;;58.05;22.20;;;;;;;-1.65;100.00;97732.94;4407801;32;20091;-69
2021/12/05 16:38:26;;;;;;;59.28;23.12;;;;;;;-1.38;100.00;97788.38;4393198;32;20065;-69
2021/12/05 16:41:04;;;;;;;65.57;23.83;;;;;;;-1.36;100.00;97794.28;4399610;32;20097;-68
2021/12/05 16:43:33;;;;;;;59.75;21.33;;;;;;;-1.36;100.00;97799.56;4400185;32;20064;-68
2021/12/05 16:46:15;;;;;;;56.47;21.90;;;;;;;-1.39;100.00;97794.66;4403157;32;20100;-69
2021/12/05 16:48:43;;;;;;;63.40;22.98;;;;;;;-1.67;100.00;97759.53;4410353;32;20043;-68
2021/12/05 16:51:22;;;;;;;66.03;23.90;;;;;;;-1.59;100.00;97773.56;4400081;32;20345;-69
2021/12/05 16:53:52;;;;;;;58.38;22.08;;;;;;;-1.38;100.00;97812.16;4402053;32;20056;-69
2021/12/05 16:56:34;;;;;;;56.72;22.42;;;;;;;-1.64;100.00;97755.69;4410249;32;20046;-68
2021/12/05 16:59:08;;;;;;;51.47;20.17;;;;;;;-1.39;100.00;97811.31;4403824;32;20051;-69
2021/12/05 17:01:36;;;;;;;60.33;21.27;;;;;;;-1.41;100.00;97807.28;4406067;32;20059;-69
2021/12/05 17:04:02;;;;;;;53.22;21.33;;;;;;;-1.42;100.00;97810.91;4408289;32;20023;-68
2021/12/05 17:06:43;;;;;;;47.00;19.83;;;;;;;-1.42;100.00;97821.47;4403637;32;20050;-68
2021/12/05 17:09:12;;;;;;;49.17;19.42;;;;;;;-1.44;100.00;97813.75;4405378;32;20062;-68
2021/12/05 17:11:39;;;;;;;49.70;19.30;;;;;;;-1.48;100.00;97816.00;4404935;32;20038;-70
2021/12/05 17:14:05;;;;;;;47.25;19.80;;;;;;;-1.50;100.00;97804.84;4401999;32;20042;-68